Time;durP1;ratioP1;P1;durP2;ratioP2;P2;SDS_P1;SDS_P2;PMS_P1;PMS_P2;Temp;Humidity;BMP_temperature;BMP_pressure;BME280_temperature;BME280_humidity;BME280_pressure;Samples;Min_cycle;Max_cycle;Signal;HPM_P1;HPM_P2
2021/12/11 00:01:58;;;;;;;4.00;1.20;;;;;;;1.11;76.12;99638.38;4982150;28;20047;-54
2021/12/11 00:04:31;;;;;;;6.50;2.13;;;;;;;1.11;76.29;99636.72;4980504;28;20063;-53
2021/12/11 00:07:02;;;;;;;6.45;1.73;;;;;;;1.12;75.30;99642.69;4980521;28;20690;-51
2021/12/11 00:09:35;;;;;;;8.63;1.60;;;;;;;1.12;76.44;99638.44;4980946;28;20058;-54
2021/12/11 00:12:09;;;;;;;9.20;1.45;;;;;;;1.16;76.21;99649.59;4982292;28;20495;-54
2021/12/11 00:14:40;;;;;;;6.10;2.17;;;;;;;1.17;76.01;99646.22;4976746;28;20648;-47
2021/12/11 00:17:08;;;;;;;9.93;2.47;;;;;;;1.17;75.96;99656.44;4977543;28;20097;-53
2021/12/11 00:19:37;;;;;;;14.10;5.95;;;;;;;1.19;75.13;99656.47;4982216;28;20511;-46
2021/12/11 00:22:13;;;;;;;17.40;4.07;;;;;;;1.17;76.06;99650.47;4979954;28;20046;-55
2021/12/11 00:24:40;;;;;;;6.10;1.92;;;;;;;1.16;75.66;99649.59;4979646;28;20047;-49
2021/12/11 00:27:11;;;;;;;9.80;2.03;;;;;;;1.16;75.96;99654.72;4974781;28;20059;-45
2021/12/11 00:29:38;;;;;;;;;;;;;;;1.12;76.21;99652.91;4980341;28;20054;-51
2021/12/11 00:32:10;;;;;;;11.15;1.58;;;;;;;1.12;76.46;99651.19;4995881;28;20056;-48
2021/12/11 00:34:43;;;;;;;5.20;2.03;;;;;;;1.10;75.65;99650.28;4968689;28;20065;-51
2021/12/11 00:37:13;;;;;;;6.68;1.55;;;;;;;1.09;76.02;99658.78;4969435;28;20058;-51
2021/12/11 00:39:52;;;;;;;5.32;1.65;;;;;;;1.05;76.58;99656.06;4968667;28;20051;-53
2021/12/11 00:42:22;;;;;;;5.05;2.03;;;;;;;1.01;76.70;99661.09;4968035;28;20058;-52
2021/12/11 00:44:54;;;;;;;7.88;2.22;;;;;;;0.98;76.14;99655.88;4985345;28;20083;-48
2021/12/11 00:47:26;;;;;;;6.07;2.50;;;;;;;0.98;76.70;99660.97;4969863;28;20050;-49
2021/12/11 00:49:59;;;;;;;9.98;2.47;;;;;;;0.96;76.09;99680.50;4968180;28;20142;-54
2021/12/11 00:52:32;;;;;;;11.45;2.05;;;;;;;0.94;76.15;99679.56;4965590;28;20067;-53
2021/12/11 00:55:00;;;;;;;9.55;2.40;;;;;;;0.93;76.17;99672.75;4968526;28;20047;-47
2021/12/11 00:57:27;;;;;;;10.45;2.80;;;;;;;0.91;77.06;99683.72;4968614;28;20054;-51
2021/12/11 01:00:05;;;;;;;6.35;2.30;;;;;;;0.91;75.97;99683.72;4966386;28;20051;-51
2021/12/11 01:02:32;;;;;;;7.20;1.60;;;;;;;0.88;76.66;99684.50;4968799;28;20109;-52
2021/12/11 01:05:00;;;;;;;7.50;2.10;;;;;;;0.87;76.65;99687.84;4967559;28;20050;-52
2021/12/11 01:07:31;;;;;;;6.13;1.52;;;;;;;0.86;76.48;99696.31;4967052;28;20082;-51
2021/12/11 01:10:08;;;;;;;5.30;1.88;;;;;;;0.84;75.95;99700.53;4968016;28;20042;-52
2021/12/11 01:12:44;;;;;;;6.38;1.90;;;;;;;0.79;76.65;99696.94;4968341;28;20054;-49
2021/12/11 01:15:20;;;;;;;3.15;1.38;;;;;;;0.75;75.89;99699.38;4983259;28;20038;-53
2021/12/11 01:21:04;;;;;;;8.30;1.90;;;;;;;0.70;76.58;99698.38;4965807;28;20051;-51
2021/12/11 01:26:24;;;;;;;5.93;2.78;;;;;;;0.67;77.10;99705.94;4966719;28;20047;-51
2021/12/11 01:28:53;;;;;;;7.10;2.20;;;;;;;0.66;77.00;99716.06;4968144;28;20070;-54
2021/12/11 01:31:23;;;;;;;8.50;1.88;;;;;;;0.64;77.32;99716.91;4969646;28;20442;-52
2021/12/11 01:33:52;;;;;;;7.78;2.65;;;;;;;0.62;77.18;99720.22;4968777;28;20054;-49
2021/12/11 01:36:18;;;;;;;6.13;1.67;;;;;;;0.60;76.77;99738.00;4968636;28;20124;-48
2021/12/11 01:38:45;;;;;;;12.77;2.15;;;;;;;0.59;77.03;99743.94;4967121;28;20109;-47
2021/12/11 01:41:18;;;;;;;5.15;1.83;;;;;;;0.57;76.31;99749.81;4983836;28;20047;-58
2021/12/11 01:43:48;;;;;;;7.05;1.63;;;;;;;0.55;76.30;99756.53;4965996;28;20105;-52
2021/12/11 01:46:15;;;;;;;5.80;1.92;;;;;;;0.51;76.97;99758.97;4966238;28;20113;-52
2021/12/11 01:48:46;;;;;;;5.28;1.70;;;;;;;0.49;76.79;99760.59;4968817;28;20050;-51
2021/12/11 01:51:25;;;;;;;6.78;1.48;;;;;;;0.46;76.69;99760.50;4965767;28;20055;-49
2021/12/11 01:53:59;;;;;;;3.78;1.38;;;;;;;0.47;76.85;99769.88;4969648;28;20038;-51
2021/12/11 01:56:28;;;;;;;7.75;1.52;;;;;;;0.45;76.90;99779.16;4965963;28;20129;-50
2021/12/11 01:59:04;;;;;;;7.32;1.67;;;;;;;0.47;77.55;99774.97;4964312;28;20098;-51
2021/12/11 02:01:40;;;;;;;7.72;1.70;;;;;;;0.51;77.57;99771.69;4964582;28;20517;-51
2021/12/11 02:04:08;;;;;;;7.18;2.03;;;;;;;0.58;77.23;99777.03;4966636;28;20089;-55
2021/12/11 02:06:39;;;;;;;5.88;2.20;;;;;;;0.64;77.03;99772.09;4967672;28;20046;-55
2021/12/11 02:09:26;;;;;;;8.88;1.83;;;;;;;0.69;78.03;99775.69;4967030;28;20486;-52
2021/12/11 02:12:16;;;;;;;3.72;1.77;;;;;;;0.72;77.29;99778.34;4969210;28;20078;-47
2021/12/11 02:14:49;;;;;;;5.15;1.75;;;;;;;0.75;77.59;99780.97;4966496;28;20474;-51
2021/12/11 02:17:22;;;;;;;6.28;1.65;;;;;;;0.79;77.78;99793.84;4966685;28;21028;-51
2021/12/11 02:19:51;;;;;;;5.40;1.63;;;;;;;0.79;76.73;99801.47;4966146;28;20063;-52
2021/12/11 02:22:21;;;;;;;11.25;1.95;;;;;;;0.83;76.67;99813.50;4965679;28;20051;-50
2021/12/11 02:24:54;;;;;;;12.43;1.65;;;;;;;0.83;77.24;99809.28;4966840;28;20492;-46
2021/12/11 02:27:28;;;;;;;8.23;2.15;;;;;;;0.87;77.20;99817.91;4980572;28;20106;-55
2021/12/11 02:30:05;;;;;;;13.77;1.75;;;;;;;0.87;77.49;99811.13;4977085;28;20043;-52
2021/12/11 02:32:39;;;;;;;5.40;2.10;;;;;;;0.88;77.11;99817.94;4969805;28;20494;-59
2021/12/11 02:35:13;;;;;;;6.38;1.65;;;;;;;0.91;77.04;99821.44;4965127;28;20062;-51
2021/12/11 02:37:46;;;;;;;7.13;1.40;;;;;;;0.93;76.60;99823.22;4963554;28;20054;-50
2021/12/11 02:40:36;;;;;;;6.55;2.17;;;;;;;0.92;77.51;99834.25;4967366;28;20109;-49
2021/12/11 02:43:11;;;;;;;18.33;3.17;;;;;;;0.96;77.26;99836.06;4965131;28;20043;-49
2021/12/11 02:45:47;;;;;;;12.82;1.60;;;;;;;0.97;77.24;99835.25;4965169;28;20063;-49
2021/12/11 02:48:21;;;;;;;10.32;1.67;;;;;;;1.01;76.96;99837.06;4963385;28;20057;-53
2021/12/11 02:51:04;;;;;;;6.80;2.15;;;;;;;1.04;77.65;99843.13;4966312;28;20058;-47
2021/12/11 02:53:37;;;;;;;7.40;1.73;;;;;;;1.07;77.25;99843.19;4979767;28;20101;-50
2021/12/11 02:56:28;;;;;;;8.48;1.42;;;;;;;1.06;77.59;99828.69;4965876;28;20042;-53
2021/12/11 02:59:00;;;;;;;4.35;1.77;;;;;;;1.10;77.03;99843.28;4965012;28;20073;-47
2021/12/11 03:01:33;;;;;;;3.60;1.38;;;;;;;1.10;76.56;99833.09;4963795;28;20054;-50
2021/12/11 03:04:12;;;;;;;8.95;2.05;;;;;;;1.11;77.39;99825.47;4966312;28;20046;-50
2021/12/11 03:06:43;;;;;;;5.25;1.83;;;;;;;1.12;77.70;99814.47;4963950;28;20055;-55
2021/12/11 03:09:12;;;;;;;6.45;1.67;;;;;;;1.13;77.18;99817.88;4965795;28;20055;-54
2021/12/11 03:11:40;;;;;;;7.55;1.58;;;;;;;1.14;77.46;99810.28;4967030;28;20403;-49
2021/12/11 03:14:12;;;;;;;4.38;1.23;;;;;;;1.17;76.35;99816.28;4966342;28;20419;-52
2021/12/11 03:16:42;;;;;;;7.90;1.83;;;;;;;1.17;77.19;99824.81;4976348;28;20053;-53
2021/12/11 03:19:14;;;;;;;9.48;2.38;;;;;;;1.18;77.84;99821.44;4964346;28;20054;-56
2021/12/11 03:21:43;;;;;;;7.63;1.27;;;;;;;1.20;76.94;99830.03;4963821;28;20061;-49
2021/12/11 03:24:10;;;;;;;4.60;1.75;;;;;;;1.21;77.21;99831.75;4966469;28;20043;-48
2021/12/11 03:26:38;;;;;;;7.57;1.92;;;;;;;1.20;77.38;99824.91;4962713;28;20081;-48
2021/12/11 03:29:07;;;;;;;5.90;1.55;;;;;;;1.20;77.64;99827.47;4967396;28;20054;-51
2021/12/11 03:31:38;;;;;;;5.07;1.33;;;;;;;1.17;78.03;99829.91;4966735;28;20493;-51
2021/12/11 03:34:08;;;;;;;8.95;1.45;;;;;;;1.15;77.76;99811.16;4967466;28;20051;-53
2021/12/11 03:36:36;;;;;;;5.43;1.38;;;;;;;1.14;77.14;99819.59;4964409;28;20039;-47
2021/12/11 03:39:10;;;;;;;5.40;1.15;;;;;;;1.11;76.76;99819.50;4967238;28;20051;-51
2021/12/11 03:41:39;;;;;;;6.32;1.02;;;;;;;1.08;77.20;99830.47;4964129;28;20125;-49
2021/12/11 03:44:08;;;;;;;8.35;1.80;;;;;;;1.06;76.76;99828.69;4967016;28;20050;-50
2021/12/11 03:46:35;;;;;;;5.20;1.73;;;;;;;1.02;76.85;99826.03;4965971;28;20137;-54
2021/12/11 03:49:07;;;;;;;4.38;1.58;;;;;;;1.00;78.21;99832.81;4963681;28;20102;-47
2021/12/11 03:51:39;;;;;;;11.00;1.55;;;;;;;0.97;76.79;99837.78;4967780;28;20043;-52
2021/12/11 03:54:12;;;;;;;11.57;1.88;;;;;;;0.96;77.43;99846.28;4965141;28;20051;-52
2021/12/11 03:56:39;;;;;;;11.02;1.08;;;;;;;0.95;77.86;99843.66;4969499;28;20064;-56
2021/12/11 03:59:10;;;;;;;5.95;1.42;;;;;;;0.93;77.90;99848.72;4977042;28;20055;-50
2021/12/11 04:01:44;;;;;;;6.03;1.00;;;;;;;0.94;77.90;99842.78;4961454;28;20054;-50
2021/12/11 04:04:19;;;;;;;10.65;1.02;;;;;;;0.94;77.59;99847.88;4964028;28;20043;-52
2021/12/11 04:06:46;;;;;;;7.30;1.00;;;;;;;0.96;78.02;99856.47;4963953;28;20474;-52
2021/12/11 04:09:14;;;;;;;4.18;1.38;;;;;;;0.98;77.68;99847.16;4967566;28;20047;-49
2021/12/11 04:11:42;;;;;;;4.80;1.10;;;;;;;1.00;78.50;99848.09;4969989;28;20609;-53
2021/12/11 04:14:12;;;;;;;9.57;1.77;;;;;;;1.02;77.33;99849.00;4963848;28;20105;-54
2021/12/11 04:16:40;;;;;;;9.95;1.45;;;;;;;1.04;77.65;99848.22;4967503;28;20150;-52
2021/12/11 04:19:08;;;;;;;8.00;1.02;;;;;;;1.05;77.37;99855.91;4982425;28;20043;-53
2021/12/11 04:21:35;;;;;;;9.00;1.73;;;;;;;1.07;77.81;99848.28;4969191;28;21174;-52
2021/12/11 04:24:05;;;;;;;4.38;0.85;;;;;;;1.10;77.17;99850.94;4968443;28;20481;-55
2021/12/11 04:26:32;;;;;;;3.65;1.33;;;;;;;1.10;78.01;99854.38;4966971;28;20055;-53
2021/12/11 04:28:59;;;;;;;11.25;1.17;;;;;;;1.12;77.15;99845.06;4968215;28;20046;-55
2021/12/11 04:31:29;;;;;;;4.93;1.50;;;;;;;1.15;77.41;99844.31;4966769;28;20063;-52
2021/12/11 04:33:59;;;;;;;4.47;1.17;;;;;;;1.18;77.79;99854.59;4969054;28;20047;-52
2021/12/11 04:36:35;;;;;;;8.88;1.40;;;;;;;1.21;77.71;99864.06;4969707;28;20051;-51
2021/12/11 04:39:07;;;;;;;11.25;2.63;;;;;;;1.22;77.67;99859.00;4968781;28;20112;-51
2021/12/11 04:41:48;;;;;;;4.28;1.30;;;;;;;1.24;77.30;99865.03;4970375;28;20482;-52
2021/12/11 04:44:24;;;;;;;8.93;0.95;;;;;;;1.27;78.01;99877.88;4968493;28;20050;-47
2021/12/11 04:46:51;;;;;;;7.93;1.23;;;;;;;1.28;78.04;99877.06;4969642;28;20038;-49
2021/12/11 04:49:29;;;;;;;9.80;1.25;;;;;;;1.30;78.20;99872.00;4968535;28;20043;-51
2021/12/11 04:52:04;;;;;;;9.27;1.33;;;;;;;1.32;77.71;99879.72;4966294;28;20130;-51
2021/12/11 04:54:46;;;;;;;4.20;1.08;;;;;;;1.34;78.70;99878.06;4984793;28;20043;-55
2021/12/11 05:00:14;;;;;;;7.05;1.48;;;;;;;1.36;78.35;99886.66;4969965;28;20109;-51
2021/12/11 05:03:11;;;;;;;4.60;1.25;;;;;;;1.36;78.36;99897.75;4964278;28;20097;-49
2021/12/11 05:05:51;;;;;;;4.22;1.98;;;;;;;1.35;77.03;99900.25;4950472;28;20063;-53
2021/12/11 05:11:09;;;;;;;9.35;1.65;;;;;;;1.34;77.01;99901.03;4981175;28;20546;-54
2021/12/11 05:13:36;;;;;;;6.68;1.63;;;;;;;1.35;77.17;99900.25;4966055;28;20047;-51
2021/12/11 05:16:08;;;;;;;12.52;2.40;;;;;;;1.35;77.58;99913.00;4966655;28;20789;-52
2021/12/11 05:18:36;;;;;;;12.55;1.30;;;;;;;1.34;77.50;99913.78;4984745;28;20054;-51
2021/12/11 05:21:08;;;;;;;5.00;2.13;;;;;;;1.33;77.59;99906.97;4965519;28;20766;-53
2021/12/11 05:23:35;;;;;;;3.75;1.17;;;;;;;1.33;77.37;99909.50;4967543;28;20090;-52
2021/12/11 05:26:02;;;;;;;5.80;2.45;;;;;;;1.33;77.56;99914.63;4962948;28;20046;-52
2021/12/11 05:28:30;;;;;;;6.07;1.33;;;;;;;1.30;78.46;99917.06;4966494;28;20057;-52
2021/12/11 05:31:00;;;;;;;5.93;2.00;;;;;;;1.28;77.97;99914.47;4968051;28;20070;-52
2021/12/11 05:33:26;;;;;;;7.95;1.50;;;;;;;1.27;77.67;99921.25;4965136;28;20616;-48
2021/12/11 05:35:53;;;;;;;4.35;1.27;;;;;;;1.25;78.04;99925.44;4967188;28;20074;-55
2021/12/11 05:38:22;;;;;;;10.10;1.73;;;;;;;1.26;77.29;99931.41;4963456;28;20055;-48
2021/12/11 05:40:53;;;;;;;5.90;1.30;;;;;;;1.24;77.89;99933.91;4965471;28;20120;-50
2021/12/11 05:43:20;;;;;;;5.32;1.55;;;;;;;1.25;77.49;99935.66;4964146;28;20047;-56
2021/12/11 05:45:47;;;;;;;9.25;1.23;;;;;;;1.24;77.31;99943.25;4967018;28;20202;-50
2021/12/11 05:48:15;;;;;;;9.75;1.30;;;;;;;1.23;77.53;99946.63;4968150;28;20078;-51
2021/12/11 05:50:47;;;;;;;14.02;2.17;;;;;;;1.20;77.43;99944.84;4966990;28;20050;-48
2021/12/11 05:53:16;;;;;;;8.90;1.13;;;;;;;1.21;77.74;99950.81;4967546;28;20042;-49
2021/12/11 05:55:46;;;;;;;6.35;1.40;;;;;;;1.20;78.53;99951.63;4963377;28;20051;-52
2021/12/11 05:58:22;;;;;;;13.15;2.25;;;;;;;1.21;77.69;99958.47;4968875;28;20109;-52
2021/12/11 06:00:50;;;;;;;9.85;1.55;;;;;;;1.22;77.73;99965.31;4966672;28;20043;-55
2021/12/11 06:03:17;;;;;;;4.72;1.48;;;;;;;1.21;77.80;99961.03;4962940;28;20049;-48
2021/12/11 06:05:44;;;;;;;4.18;1.67;;;;;;;1.22;78.44;99955.94;4966989;28;20113;-54
2021/12/11 06:08:11;;;;;;;7.35;1.60;;;;;;;1.24;78.33;99958.56;4964297;28;20109;-54
2021/12/11 06:10:40;;;;;;;5.03;1.60;;;;;;;1.25;78.56;99961.16;4966371;28;20485;-50
2021/12/11 06:13:08;;;;;;;5.60;1.23;;;;;;;1.26;78.66;99965.47;4965869;28;20137;-51
2021/12/11 06:15:36;;;;;;;7.25;1.48;;;;;;;1.27;78.82;99969.75;4964197;28;20113;-53
2021/12/11 06:18:03;;;;;;;5.30;1.30;;;;;;;1.28;78.29;99966.38;4968699;28;20051;-55
2021/12/11 06:20:31;;;;;;;6.68;1.20;;;;;;;1.28;78.44;99971.47;4968474;28;20067;-53
2021/12/11 06:23:04;;;;;;;5.53;1.63;;;;;;;1.28;78.04;99981.69;4966583;28;20070;-47
2021/12/11 06:25:32;;;;;;;4.75;1.60;;;;;;;1.28;77.23;99991.88;4966519;28;20054;-49
2021/12/11 06:27:58;;;;;;;12.40;4.10;;;;;;;1.27;77.76;99994.38;4966987;28;20059;-49
2021/12/11 06:30:26;;;;;;;6.47;2.25;;;;;;;1.25;78.19;99989.22;4968622;28;20113;-47
2021/12/11 06:32:55;;;;;;;7.90;2.03;;;;;;;1.24;78.74;99984.94;4968215;28;20050;-51
2021/12/11 06:35:46;;;;;;;7.20;1.92;;;;;;;1.22;78.42;99985.72;4962278;28;20069;-49
2021/12/11 06:38:16;;;;;;;16.88;5.65;;;;;;;1.23;77.96;99995.97;4961711;28;20133;-52
2021/12/11 06:40:43;;;;;;;7.93;1.52;;;;;;;1.23;78.46;99993.44;4967019;28;20047;-55
2021/12/11 06:43:11;;;;;;;7.88;1.50;;;;;;;1.22;77.93;99986.56;4966736;28;20387;-54
2021/12/11 06:45:38;;;;;;;6.43;1.33;;;;;;;1.25;78.67;99991.78;4967265;28;20077;-47
2021/12/11 06:48:05;;;;;;;5.05;1.58;;;;;;;1.24;79.00;99982.41;4968415;28;20050;-52
2021/12/11 06:50:32;;;;;;;5.47;1.85;;;;;;;1.24;79.03;99991.72;4964446;28;20047;-50
2021/12/11 06:53:07;;;;;;;7.00;1.08;;;;;;;1.24;79.13;99997.72;4965919;28;20098;-51
2021/12/11 06:55:34;;;;;;;9.50;1.63;;;;;;;1.26;78.37;99998.66;4966175;28;20050;-51
2021/12/11 06:58:03;;;;;;;8.93;1.58;;;;;;;1.24;78.10;100001.94;4963306;28;20316;-50
2021/12/11 07:00:30;;;;;;;7.45;1.55;;;;;;;1.24;78.21;100001.94;4979260;28;20054;-54
2021/12/11 07:02:57;;;;;;;38.65;9.38;;;;;;;1.24;78.15;99995.16;4978028;28;20060;-47
2021/12/11 07:05:23;;;;;;;59.20;13.38;;;;;;;1.23;78.80;100007.84;4961594;28;20054;-54
2021/12/11 07:07:50;;;;;;;30.67;7.07;;;;;;;1.23;78.11;100018.06;4962210;28;20058;-52
2021/12/11 07:10:20;;;;;;;37.58;8.73;;;;;;;1.21;77.56;100010.34;4966730;28;20055;-47
2021/12/11 07:12:48;;;;;;;22.73;7.00;;;;;;;1.20;78.08;100012.84;4962938;28;20050;-54
2021/12/11 07:15:16;;;;;;;34.20;8.80;;;;;;;1.21;78.66;100023.13;4963425;28;20046;-57
2021/12/11 07:17:42;;;;;;;30.20;9.63;;;;;;;1.20;78.20;100023.94;4965584;28;20043;-52
2021/12/11 07:20:12;;;;;;;20.73;6.70;;;;;;;1.20;79.25;100018.84;4962646;28;20043;-53
2021/12/11 07:22:41;;;;;;;8.43;2.90;;;;;;;1.22;77.83;100017.19;4965956;28;20047;-52
2021/12/11 07:25:16;;;;;;;9.80;1.58;;;;;;;1.24;78.05;100020.66;4965911;28;20494;-54
2021/12/11 07:27:45;;;;;;;7.45;1.98;;;;;;;1.25;77.97;100017.31;4964124;28;20766;-51
2021/12/11 07:30:12;;;;;;;7.72;1.48;;;;;;;1.26;78.69;100018.19;4968503;28;20466;-49
2021/12/11 07:32:39;;;;;;;7.97;1.65;;;;;;;1.27;78.65;100022.47;4965251;28;20054;-50
2021/12/11 07:35:07;;;;;;;4.13;1.10;;;;;;;1.27;78.15;100013.13;4963236;28;20043;-49
2021/12/11 07:37:34;;;;;;;2.80;1.17;;;;;;;1.26;79.35;100019.06;4964109;28;20046;-53
2021/12/11 07:40:03;;;;;;;6.45;1.70;;;;;;;1.27;78.04;100015.69;4965861;28;20542;-52
2021/12/11 07:42:29;;;;;;;9.70;2.53;;;;;;;1.28;79.42;100007.19;4965121;28;20063;-50
2021/12/11 07:44:56;;;;;;;6.95;1.77;;;;;;;1.30;79.44;100019.13;4965572;28;20054;-49
2021/12/11 07:47:23;;;;;;;7.20;1.90;;;;;;;1.32;78.91;100017.53;4966187;28;20134;-52
2021/12/11 07:49:49;;;;;;;6.90;1.55;;;;;;;1.33;79.50;100026.91;4969518;28;20071;-53
2021/12/11 07:52:16;;;;;;;9.05;2.05;;;;;;;1.35;78.28;100027.84;4971624;28;20806;-54
2021/12/11 07:54:43;;;;;;;13.55;2.05;;;;;;;1.37;78.08;100021.09;4982939;28;20050;-51
2021/12/11 07:57:09;;;;;;;12.85;2.40;;;;;;;1.39;78.84;100029.69;4969863;28;20494;-50
2021/12/11 07:59:36;;;;;;;9.73;2.83;;;;;;;1.44;79.54;100037.47;4966746;28;20050;-54
2021/12/11 08:02:03;;;;;;;5.07;1.83;;;;;;;1.48;78.21;100040.19;4967978;28;20483;-53
2021/12/11 08:04:30;;;;;;;10.40;2.60;;;;;;;1.52;79.28;100051.41;4966466;28;20050;-51
2021/12/11 08:06:56;;;;;;;10.10;2.22;;;;;;;1.55;77.80;100051.47;4965235;28;20553;-50
2021/12/11 08:09:23;;;;;;;6.93;2.20;;;;;;;1.58;78.10;100055.84;4968926;28;20105;-50
2021/12/11 08:11:51;;;;;;;14.98;2.47;;;;;;;1.60;79.06;100049.97;4969644;28;20097;-54
2021/12/11 08:14:18;;;;;;;9.82;3.08;;;;;;;1.64;77.95;100056.03;4967474;28;20046;-48
2021/12/11 08:16:47;;;;;;;14.88;3.70;;;;;;;1.67;79.61;100062.13;4969553;28;20042;-53
2021/12/11 08:19:18;;;;;;;18.00;5.32;;;;;;;1.73;78.99;100073.34;4969088;28;20755;-50
2021/12/11 08:21:48;;;;;;;19.13;4.05;;;;;;;1.76;78.82;100076.03;4966039;28;20113;-51
2021/12/11 08:24:16;;;;;;;17.95;4.03;;;;;;;1.79;79.05;100076.13;4966150;28;20097;-49
2021/12/11 08:26:44;;;;;;;12.70;3.05;;;;;;;1.84;78.32;100078.81;4968541;28;20502;-55
2021/12/11 08:29:13;;;;;;;13.15;3.55;;;;;;;1.88;78.71;100075.53;4969187;28;20046;-52
2021/12/11 08:31:41;;;;;;;8.70;2.08;;;;;;;1.91;79.37;100070.53;4968927;28;20148;-56
2021/12/11 08:34:09;;;;;;;8.77;2.42;;;;;;;1.94;79.40;100078.31;4966241;28;20039;-53
2021/12/11 08:36:36;;;;;;;16.92;2.00;;;;;;;1.99;78.30;100073.38;4966303;28;20047;-49
2021/12/11 08:39:06;;;;;;;15.65;2.25;;;;;;;2.02;79.43;100064.09;4966937;28;20055;-52
2021/12/11 08:41:34;;;;;;;8.80;1.98;;;;;;;2.07;78.56;100068.50;4964715;28;20059;-52
2021/12/11 08:44:07;;;;;;;13.02;2.58;;;;;;;2.11;78.88;100068.66;4965846;28;20106;-52
2021/12/11 08:46:34;;;;;;;9.13;1.65;;;;;;;2.15;78.87;100069.59;4968912;28;20105;-51
2021/12/11 08:49:09;;;;;;;8.93;1.63;;;;;;;2.19;77.94;100071.44;4965527;28;20053;-57
2021/12/11 08:51:41;;;;;;;14.88;1.45;;;;;;;2.24;78.46;100076.69;4967958;28;20043;-54
2021/12/11 08:54:09;;;;;;;16.55;2.08;;;;;;;2.27;78.42;100080.19;4964232;28;20096;-57
2021/12/11 08:56:38;;;;;;;5.53;1.65;;;;;;;2.33;79.49;100088.91;4968276;28;20050;-52
2021/12/11 08:59:07;;;;;;;15.13;2.28;;;;;;;2.38;78.94;100083.13;4967406;28;20054;-48
2021/12/11 09:01:42;;;;;;;18.00;1.98;;;;;;;2.42;78.17;100084.06;4964564;28;20051;-51
2021/12/11 09:04:15;;;;;;;5.60;0.88;;;;;;;2.45;78.67;100084.16;4966748;28;20515;-56
2021/12/11 09:06:50;;;;;;;10.75;1.63;;;;;;;2.50;78.38;100089.44;4966550;28;20047;-53
2021/12/11 09:09:24;;;;;;;12.18;1.63;;;;;;;2.55;79.41;100095.53;4966333;28;20100;-54
2021/12/11 09:11:59;;;;;;;3.85;1.05;;;;;;;2.58;78.01;100095.66;4968413;28;20082;-56
2021/12/11 09:14:33;;;;;;;2.67;1.27;;;;;;;2.63;78.79;100099.19;4967063;28;20093;-55
2021/12/11 09:17:10;;;;;;;12.82;2.05;;;;;;;2.66;79.46;100098.41;4962947;28;20655;-57
2021/12/11 09:19:43;;;;;;;13.30;1.45;;;;;;;2.72;78.24;100088.38;4968219;28;20411;-56
2021/12/11 09:22:20;;;;;;;7.22;1.95;;;;;;;2.95;79.03;100083.09;4968927;28;20051;-50
2021/12/11 09:24:56;;;;;;;12.60;1.73;;;;;;;3.49;79.43;100088.84;4968304;28;20050;-53
2021/12/11 09:27:29;;;;;;;14.10;1.80;;;;;;;4.14;78.78;100093.84;4968015;28;20062;-53
2021/12/11 09:30:08;;;;;;;9.45;1.55;;;;;;;4.57;78.10;100100.03;4969101;28;20062;-56
2021/12/11 09:32:44;;;;;;;10.85;1.77;;;;;;;4.89;77.24;100097.28;4964270;28;20055;-54
2021/12/11 09:35:21;;;;;;;7.55;1.23;;;;;;;5.53;77.23;100095.97;4968137;28;20046;-56
2021/12/11 09:37:51;;;;;;;5.88;1.23;;;;;;;5.84;74.98;100100.78;4965487;28;20375;-48
2021/12/11 09:40:29;;;;;;;;;;;;;;;6.36;76.32;100089.69;4964738;28;20058;-49
2021/12/11 09:45:39;;;;;;;10.48;1.20;;;;;;;7.58;73.82;100114.38;5048555;27;20421;-52
2021/12/11 09:48:10;;;;;;;7.78;1.33;;;;;;;7.81;72.66;100111.19;5019478;28;20495;-50
2021/12/11 09:50:51;;;;;;;4.70;2.15;;;;;;;7.85;72.28;100107.78;5024230;28;20460;-53
2021/12/11 09:53:22;;;;;;;6.72;1.17;;;;;;;7.75;71.90;100114.56;5020383;28;20045;-55
2021/12/11 09:55:50;;;;;;;8.57;1.58;;;;;;;7.62;71.05;100113.56;5019559;28;20100;-57
2021/12/11 09:58:21;;;;;;;5.45;1.20;;;;;;;7.63;72.18;100119.59;5019617;28;20058;-53
2021/12/11 10:00:53;;;;;;;3.83;0.95;;;;;;;7.86;73.11;100122.41;5019459;28;20259;-53
2021/12/11 10:03:24;;;;;;;7.45;1.13;;;;;;;7.98;71.53;100129.41;5017279;28;20072;-51
2021/12/11 10:05:56;;;;;;;;;;;;;;;8.00;71.48;100134.56;5019083;28;20061;-52
2021/12/11 10:08:31;;;;;;;6.95;1.10;;;;;;;8.29;71.20;100136.53;5019363;28;19928;-58
2021/12/11 10:11:18;;;;;;;8.52;1.30;;;;;;;8.33;69.83;100127.97;5016564;28;20104;-53
2021/12/11 10:13:58;;;;;;;11.73;1.40;;;;;;;8.17;69.58;100135.56;5017837;28;20107;-53
2021/12/11 10:16:30;;;;;;;8.90;0.98;;;;;;;8.06;71.25;100137.19;5016799;28;20059;-51
2021/12/11 10:18:57;;;;;;;11.57;1.80;;;;;;;8.04;70.97;100138.91;5015593;28;20058;-56
2021/12/11 10:21:32;;;;;;;6.68;1.15;;;;;;;7.96;70.86;100144.84;5129530;22;20076;-50
2021/12/11 10:24:05;;;;;;;5.80;0.98;;;;;;;7.90;71.20;100134.47;5038830;28;20472;-53
2021/12/11 10:26:32;;;;;;;11.40;1.70;;;;;;;7.77;70.26;100128.31;5044894;28;20102;-56
2021/12/11 10:29:03;;;;;;;10.55;1.63;;;;;;;7.75;70.12;100129.16;5041334;28;20045;-54
2021/12/11 10:31:36;;;;;;;5.18;1.20;;;;;;;7.71;70.07;100133.44;5044388;28;20053;-54
2021/12/11 10:34:07;;;;;;;8.45;1.52;;;;;;;7.56;69.45;100139.28;5041603;28;20041;-53
2021/12/11 10:36:41;;;;;;;7.88;1.15;;;;;;;7.44;70.36;100135.72;5039685;28;20057;-51
2021/12/11 10:39:10;;;;;;;5.50;1.35;;;;;;;7.36;70.17;100137.34;5037919;28;20049;-50
2021/12/11 10:41:38;;;;;;;14.65;1.45;;;;;;;7.22;70.50;100141.47;5043174;28;21177;-50
2021/12/11 10:44:11;;;;;;;6.88;1.13;;;;;;;7.10;71.21;100137.00;5039116;28;20045;-56
2021/12/11 10:46:45;;;;;;;6.20;1.42;;;;;;;7.00;71.73;100128.31;5036724;28;20049;-52
2021/12/11 10:49:13;;;;;;;5.15;1.52;;;;;;;6.91;71.64;100135.06;5039354;28;20053;-52
2021/12/11 10:51:45;;;;;;;6.68;1.25;;;;;;;6.78;72.20;100128.00;5036928;28;20103;-51
2021/12/11 10:54:16;;;;;;;7.85;1.20;;;;;;;6.67;71.28;100127.84;5040588;28;20049;-53
2021/12/11 10:56:43;;;;;;;6.13;0.98;;;;;;;6.54;70.74;100124.22;5029446;28;20118;-53
2021/12/11 10:59:15;;;;;;;8.80;0.98;;;;;;;6.43;71.84;100116.34;5024448;28;20057;-55
2021/12/11 11:01:55;;;;;;;9.90;0.85;;;;;;;6.35;72.54;100118.78;5026805;28;20103;-53
2021/12/11 11:04:27;;;;;;;11.55;1.48;;;;;;;6.30;71.31;100120.44;5027740;28;20053;-52
2021/12/11 11:06:54;;;;;;;10.88;1.52;;;;;;;6.25;72.84;100115.22;5026941;28;20100;-49
2021/12/11 11:09:22;;;;;;;8.68;0.80;;;;;;;6.23;73.34;100118.59;5025473;28;20512;-51
2021/12/11 11:11:53;;;;;;;9.90;1.92;;;;;;;6.23;72.30;100128.91;5026377;28;20512;-55
2021/12/11 11:14:21;;;;;;;8.95;2.72;;;;;;;6.22;73.15;100135.75;5024920;28;20424;-53
2021/12/11 11:16:53;;;;;;;9.85;1.52;;;;;;;6.23;73.02;100134.03;5024674;28;20049;-51
2021/12/11 11:19:22;;;;;;;10.48;1.88;;;;;;;6.20;71.91;100134.84;5020944;28;20382;-53
2021/12/11 11:21:56;;;;;;;13.52;1.48;;;;;;;6.17;73.15;100130.53;5009824;28;20677;-54
2021/12/11 11:24:30;;;;;;;4.60;0.85;;;;;;;6.11;72.87;100120.13;4997341;28;20089;-55
2021/12/11 11:26:58;;;;;;;17.60;1.48;;;;;;;6.06;72.83;100116.63;5002726;28;20516;-49
2021/12/11 11:29:28;;;;;;;4.05;1.23;;;;;;;6.01;73.67;100123.38;5003061;28;20054;-54
2021/12/11 11:32:00;;;;;;;11.50;1.80;;;;;;;5.99;71.99;100118.19;5006524;28;20050;-49
2021/12/11 11:34:30;;;;;;;8.45;1.35;;;;;;;5.95;72.73;100118.13;5004975;28;20046;-53
2021/12/11 11:37:02;;;;;;;4.47;1.15;;;;;;;5.89;73.33;100109.47;5003365;28;20050;-53
2021/12/11 11:39:30;;;;;;;4.97;1.60;;;;;;;5.85;72.22;100112.81;5000078;28;20054;-54
2021/12/11 11:42:04;;;;;;;2.35;0.95;;;;;;;5.85;72.92;100107.69;5002029;28;20481;-54
2021/12/11 11:44:31;;;;;;;4.78;0.68;;;;;;;5.87;73.11;100116.28;5003812;28;20049;-52
2021/12/11 11:47:03;;;;;;;7.75;1.50;;;;;;;5.88;73.47;100117.16;4993368;28;20128;-51
2021/12/11 11:49:32;;;;;;;11.75;1.45;;;;;;;5.86;73.30;100113.66;5006118;28;20045;-52
2021/12/11 11:52:05;;;;;;;11.50;1.08;;;;;;;5.83;72.66;100101.63;4998126;28;20050;-50
2021/12/11 11:54:33;;;;;;;7.50;1.90;;;;;;;5.82;73.37;100104.19;4997744;28;20099;-50
2021/12/11 11:57:07;;;;;;;6.97;2.05;;;;;;;5.80;72.54;100099.00;4998633;28;20100;-51
2021/12/11 11:59:34;;;;;;;8.35;1.42;;;;;;;5.81;73.08;100097.31;4997237;28;20128;-55
2021/12/11 12:02:08;;;;;;;7.18;1.88;;;;;;;5.79;73.14;100097.28;5005571;28;20042;-49
2021/12/11 12:04:36;;;;;;;6.82;1.08;;;;;;;5.82;72.28;100106.75;5000846;28;20053;-49
2021/12/11 12:07:05;;;;;;;13.68;1.63;;;;;;;5.83;73.33;100101.63;5004747;28;20045;-54
2021/12/11 12:09:38;;;;;;;6.95;1.20;;;;;;;5.85;73.86;100097.41;4996180;28;20054;-53